Time;durP1;ratioP1;P1;durP2;ratioP2;P2;SDS_P1;SDS_P2;PMS_P1;PMS_P2;Temp;Humidity;BMP_temperature;BMP_pressure;BME280_temperature;BME280_humidity;BME280_pressure;Samples;Min_cycle;Max_cycle;Signal;HPM_P1;HPM_P2
2022/03/11 00:00:42;;;;;;;21.58;14.18;;;11.90;99.90;;;;;;5046317;28;20040;-69
2022/03/11 00:03:10;;;;;;;21.02;12.85;;;11.90;99.90;;;;;;5045564;28;20516;-69
2022/03/11 00:05:36;;;;;;;22.15;13.38;;;11.90;99.90;;;;;;5045664;28;20041;-69
2022/03/11 00:08:03;;;;;;;17.92;13.40;;;11.90;99.90;;;;;;5047538;28;20037;-69
2022/03/11 00:10:28;;;;;;;23.02;13.88;;;11.90;99.90;;;;;;5039450;28;20108;-69
2022/03/11 00:12:54;;;;;;;25.08;13.73;;;11.90;99.90;;;;;;5047027;28;20530;-69
2022/03/11 00:15:20;;;;;;;23.58;13.23;;;11.90;99.90;;;;;;5045301;28;20051;-69
2022/03/11 00:17:46;;;;;;;20.83;12.75;;;11.90;99.90;;;;;;5037644;28;20071;-69
2022/03/11 00:20:13;;;;;;;21.15;13.77;;;11.90;99.90;;;;;;5038509;28;20084;-69
2022/03/11 00:22:39;;;;;;;24.10;14.05;;;11.90;99.90;;;;;;5036092;28;20029;-69
2022/03/11 00:25:05;;;;;;;19.08;12.93;;;11.90;99.90;;;;;;5039607;28;20040;-69
2022/03/11 00:27:31;;;;;;;25.63;14.15;;;11.90;99.90;;;;;;5035381;28;20628;-67
2022/03/11 00:29:56;;;;;;;20.02;15.18;;;11.90;99.90;;;;;;5040030;28;20046;-67
2022/03/11 00:32:22;;;;;;;21.77;13.20;;;11.90;99.90;;;;;;5038560;28;20029;-67
2022/03/11 00:34:48;;;;;;;28.10;14.80;;;11.90;99.90;;;;;;5047943;28;20034;-67
2022/03/11 00:37:14;;;;;;;29.00;14.30;;;11.90;99.90;;;;;;5045298;28;20124;-67
2022/03/11 00:39:39;;;;;;;23.80;15.43;;;11.90;99.90;;;;;;5038177;28;20029;-67
2022/03/11 00:42:05;;;;;;;24.38;14.85;;;11.90;99.90;;;;;;5037798;28;20117;-67
2022/03/11 00:44:31;;;;;;;26.13;14.40;;;11.90;99.90;;;;;;5038191;28;20037;-67
2022/03/11 00:46:57;;;;;;;25.52;15.63;;;11.80;99.90;;;;;;5041278;28;20186;-67
2022/03/11 00:49:22;;;;;;;22.45;14.32;;;11.80;99.90;;;;;;5042574;28;20033;-67
2022/03/11 00:51:48;;;;;;;22.33;14.90;;;11.90;99.90;;;;;;5040786;28;20032;-67
2022/03/11 00:54:14;;;;;;;26.13;15.27;;;11.90;99.90;;;;;;5039253;28;20052;-67
2022/03/11 00:56:39;;;;;;;24.63;14.88;;;11.90;99.90;;;;;;5038917;28;20381;-67
2022/03/11 00:59:06;;;;;;;25.25;15.20;;;11.90;99.90;;;;;;5026844;28;20029;-66
2022/03/11 01:01:32;;;;;;;25.58;15.48;;;11.80;99.90;;;;;;5040988;28;20033;-67
2022/03/11 01:03:57;;;;;;;23.17;15.32;;;11.80;99.90;;;;;;5048705;28;20033;-67
2022/03/11 01:06:23;;;;;;;25.88;16.70;;;11.80;99.90;;;;;;5044855;28;20052;-68
2022/03/11 01:08:49;;;;;;;26.15;15.60;;;11.80;99.90;;;;;;5045290;28;20090;-68
2022/03/11 01:11:15;;;;;;;25.77;16.50;;;11.80;99.90;;;;;;5041633;28;20029;-67
2022/03/11 01:13:41;;;;;;;25.23;14.82;;;11.80;99.90;;;;;;5048206;28;20041;-67
2022/03/11 01:16:07;;;;;;;26.05;17.10;;;11.80;99.90;;;;;;5050236;28;20025;-68
2022/03/11 01:18:34;;;;;;;24.52;15.90;;;11.80;99.90;;;;;;5050530;28;20040;-68
2022/03/11 01:20:59;;;;;;;33.20;17.02;;;11.80;99.90;;;;;;5049461;28;20564;-67
2022/03/11 01:23:25;;;;;;;23.00;16.10;;;11.80;99.90;;;;;;5050339;28;20120;-67
2022/03/11 01:25:51;;;;;;;25.98;14.77;;;11.80;99.90;;;;;;5050578;28;20035;-67
2022/03/11 01:28:16;;;;;;;24.20;15.75;;;11.80;99.90;;;;;;5049945;28;20489;-68
2022/03/11 01:30:42;;;;;;;25.98;15.63;;;11.80;99.90;;;;;;5050758;28;20028;-68
2022/03/11 01:33:08;;;;;;;26.55;15.43;;;11.80;99.90;;;;;;5050499;28;20446;-68
2022/03/11 01:35:34;;;;;;;25.42;15.52;;;11.80;99.90;;;;;;5046152;28;20406;-68
2022/03/11 01:38:00;;;;;;;27.58;15.52;;;11.80;99.90;;;;;;5048555;28;20033;-68
2022/03/11 01:40:25;;;;;;;27.38;16.83;;;11.80;99.90;;;;;;5048680;28;20036;-68
2022/03/11 01:42:51;;;;;;;25.15;15.02;;;11.80;99.90;;;;;;5045945;28;20021;-69
2022/03/11 01:45:17;;;;;;;28.92;15.82;;;11.80;99.90;;;;;;5046060;28;20044;-69
2022/03/11 01:47:44;;;;;;;23.35;15.45;;;11.80;99.90;;;;;;5046382;28;20461;-69
2022/03/11 01:50:10;;;;;;;24.95;15.20;;;11.70;99.90;;;;;;5051377;28;20123;-69
2022/03/11 01:52:37;;;;;;;21.70;14.80;;;11.70;99.90;;;;;;5049151;28;20033;-69
2022/03/11 01:55:04;;;;;;;24.10;16.00;;;11.70;99.90;;;;;;5047542;28;20365;-69
2022/03/11 01:57:37;;;;;;;26.88;16.00;;;11.70;99.90;;;;;;5045715;28;20056;-69
2022/03/11 02:00:07;;;;;;;25.98;16.60;;;11.70;99.90;;;;;;5049555;28;20639;-69
2022/03/11 02:02:33;;;;;;;25.95;15.70;;;11.70;99.90;;;;;;5049931;28;20488;-69
2022/03/11 02:05:00;;;;;;;26.00;16.10;;;11.70;99.90;;;;;;5052387;28;20053;-68
2022/03/11 02:07:27;;;;;;;28.20;16.90;;;11.60;99.90;;;;;;5050285;28;20032;-69
2022/03/11 02:09:53;;;;;;;25.25;15.48;;;11.60;99.90;;;;;;5025058;28;20033;-69
2022/03/11 02:12:34;;;;;;;27.35;16.65;;;11.60;99.90;;;;;;5049505;28;20043;-69
2022/03/11 02:15:05;;;;;;;24.20;14.73;;;11.60;99.90;;;;;;5046398;28;20045;-68
2022/03/11 02:17:32;;;;;;;25.33;15.27;;;11.60;99.90;;;;;;5046639;28;20050;-69
2022/03/11 02:19:58;;;;;;;23.45;15.50;;;11.60;99.90;;;;;;5049545;28;20104;-69
2022/03/11 02:22:25;;;;;;;25.88;15.25;;;11.60;99.90;;;;;;5047994;28;20492;-69
2022/03/11 02:24:52;;;;;;;26.40;16.00;;;11.60;99.90;;;;;;5050658;28;20101;-69
2022/03/11 02:27:19;;;;;;;22.10;15.40;;;11.60;99.90;;;;;;5046696;28;20078;-69
2022/03/11 02:29:45;;;;;;;25.00;15.85;;;11.60;99.90;;;;;;5051091;28;20377;-69
2022/03/11 02:32:13;;;;;;;22.52;15.77;;;11.60;99.90;;;;;;5046927;28;20032;-69
2022/03/11 02:34:40;;;;;;;26.38;15.32;;;11.60;99.90;;;;;;5049961;28;20107;-69
2022/03/11 02:37:06;;;;;;;25.80;15.48;;;11.60;99.90;;;;;;5049196;28;20028;-69
2022/03/11 02:39:32;;;;;;;25.85;16.17;;;11.60;99.90;;;;;;5048483;28;20052;-69
2022/03/11 02:42:00;;;;;;;22.67;15.52;;;11.60;99.90;;;;;;5046445;28;20481;-68
2022/03/11 02:44:29;;;;;;;24.52;15.75;;;11.60;99.90;;;;;;5049650;28;20037;-69
2022/03/11 02:46:55;;;;;;;24.58;15.52;;;11.60;99.90;;;;;;5053258;28;20385;-69
2022/03/11 02:49:21;;;;;;;21.65;15.45;;;11.50;99.90;;;;;;5038141;28;20120;-69
2022/03/11 02:51:47;;;;;;;23.90;16.02;;;11.50;99.90;;;;;;5049182;28;20084;-69
2022/03/11 02:54:12;;;;;;;28.30;16.35;;;11.50;99.90;;;;;;5049606;28;20032;-69
2022/03/11 02:56:38;;;;;;;22.33;15.18;;;11.50;99.90;;;;;;5049444;28;20029;-69
2022/03/11 02:59:04;;;;;;;23.13;15.82;;;11.50;99.90;;;;;;5052136;28;20033;-69
2022/03/11 03:01:29;;;;;;;22.88;15.20;;;11.50;99.90;;;;;;5051123;28;20485;-69
2022/03/11 03:03:55;;;;;;;26.65;15.65;;;11.50;99.90;;;;;;5050582;28;20029;-69
2022/03/11 03:06:21;;;;;;;23.25;15.52;;;11.50;99.90;;;;;;5047555;28;20033;-69
2022/03/11 03:08:46;;;;;;;23.77;15.20;;;11.50;99.90;;;;;;5051431;28;20107;-69
2022/03/11 03:11:12;;;;;;;25.45;15.55;;;11.50;99.90;;;;;;5045630;28;20452;-69
2022/03/11 03:13:38;;;;;;;27.20;15.55;;;11.60;99.90;;;;;;5049644;28;20131;-69
2022/03/11 03:16:04;;;;;;;22.60;15.48;;;11.50;99.90;;;;;;5049953;28;20033;-68
2022/03/11 03:18:30;;;;;;;24.35;15.00;;;11.50;99.90;;;;;;5048492;28;20029;-68
2022/03/11 03:20:56;;;;;;;24.90;15.90;;;11.50;99.90;;;;;;5047733;28;20032;-69
2022/03/11 03:23:24;;;;;;;23.50;16.15;;;11.60;99.90;;;;;;5049719;28;20025;-69
2022/03/11 03:25:50;;;;;;;25.67;15.25;;;11.50;99.90;;;;;;5050586;28;20060;-69
2022/03/11 03:28:16;;;;;;;27.92;15.88;;;11.60;99.90;;;;;;5048849;28;20493;-68
2022/03/11 03:30:42;;;;;;;23.52;16.05;;;11.60;99.90;;;;;;5050235;28;20029;-68
2022/03/11 03:33:07;;;;;;;23.15;15.63;;;11.50;99.90;;;;;;5048135;28;20040;-67
2022/03/11 03:35:34;;;;;;;25.58;14.80;;;11.50;99.90;;;;;;5047896;28;20367;-67
2022/03/11 03:37:59;;;;;;;23.75;15.77;;;11.60;99.90;;;;;;5050054;28;20028;-67
2022/03/11 03:40:25;;;;;;;24.15;15.85;;;11.50;99.90;;;;;;5046780;28;20021;-68
2022/03/11 03:42:51;;;;;;;24.20;15.30;;;11.50;99.90;;;;;;5049458;28;20029;-67
2022/03/11 03:45:17;;;;;;;22.55;15.70;;;11.50;99.90;;;;;;5048042;28;20028;-68
2022/03/11 03:47:43;;;;;;;20.48;15.68;;;11.50;99.90;;;;;;5052306;28;20037;-68
2022/03/11 03:50:09;;;;;;;23.13;15.18;;;11.50;99.90;;;;;;5049513;28;20041;-68
2022/03/11 03:52:35;;;;;;;25.17;15.15;;;11.50;99.90;;;;;;5049280;28;20025;-68
2022/03/11 03:55:00;;;;;;;23.90;16.45;;;11.50;99.90;;;;;;5050501;28;20100;-68
2022/03/11 03:57:27;;;;;;;22.73;15.63;;;11.50;99.90;;;;;;5048290;28;20032;-67
2022/03/11 03:59:53;;;;;;;22.35;15.63;;;11.50;99.90;;;;;;5050388;28;20017;-68
2022/03/11 04:02:19;;;;;;;28.33;16.17;;;11.50;99.90;;;;;;5040143;28;20086;-68
2022/03/11 04:04:45;;;;;;;23.63;15.90;;;11.50;99.90;;;;;;5051689;28;20025;-67
2022/03/11 04:07:11;;;;;;;25.85;16.48;;;11.50;99.90;;;;;;5050541;28;20068;-68
2022/03/11 04:09:37;;;;;;;24.90;15.23;;;11.40;99.90;;;;;;5047878;28;20600;-67
2022/03/11 04:12:03;;;;;;;24.55;15.88;;;11.40;99.90;;;;;;5044679;28;20028;-68
2022/03/11 04:14:28;;;;;;;20.65;14.75;;;11.50;99.90;;;;;;5047349;28;20136;-67
2022/03/11 04:16:55;;;;;;;25.58;16.65;;;11.40;99.90;;;;;;5051366;28;20121;-68
2022/03/11 04:19:21;;;;;;;21.83;14.50;;;11.50;99.90;;;;;;5050098;28;20477;-67
2022/03/11 04:21:46;;;;;;;23.25;15.57;;;11.50;99.90;;;;;;5050140;28;20151;-67
2022/03/11 04:24:15;;;;;;;26.00;16.42;;;11.40;99.90;;;;;;5049508;28;20037;-68
2022/03/11 04:26:43;;;;;;;24.33;15.68;;;11.40;99.90;;;;;;5053692;28;20033;-67
2022/03/11 04:29:09;;;;;;;24.35;15.95;;;11.40;99.90;;;;;;5051557;28;20037;-69
2022/03/11 04:31:35;;;;;;;22.88;16.10;;;11.40;99.90;;;;;;5041072;28;20347;-69
2022/03/11 04:34:02;;;;;;;24.83;15.77;;;11.40;99.90;;;;;;5050950;28;20032;-69
2022/03/11 04:36:29;;;;;;;28.13;15.65;;;11.40;99.90;;;;;;5049155;28;20551;-69
2022/03/11 04:38:55;;;;;;;25.48;15.75;;;11.40;99.90;;;;;;5048240;28;20079;-69
2022/03/11 04:41:21;;;;;;;24.38;15.68;;;11.40;99.90;;;;;;5049864;28;20082;-69
2022/03/11 04:43:47;;;;;;;24.67;15.93;;;11.40;99.90;;;;;;5051154;28;20040;-69
2022/03/11 04:46:13;;;;;;;25.20;16.05;;;11.40;99.90;;;;;;5050623;28;20500;-69
2022/03/11 04:48:41;;;;;;;23.95;16.05;;;11.40;99.90;;;;;;5049752;28;20033;-69
2022/03/11 04:51:06;;;;;;;21.52;16.15;;;11.40;99.90;;;;;;5050042;28;20041;-69
2022/03/11 04:53:32;;;;;;;22.13;15.93;;;11.40;99.90;;;;;;5049572;28;20069;-69
2022/03/11 04:55:58;;;;;;;23.48;16.13;;;11.40;99.90;;;;;;5049310;28;20033;-69
2022/03/11 04:58:24;;;;;;;24.40;17.17;;;11.30;99.90;;;;;;5048804;28;20032;-69
2022/03/11 05:00:50;;;;;;;27.73;17.55;;;11.30;99.90;;;;;;5051057;28;20037;-69
2022/03/11 05:03:15;;;;;;;26.13;16.60;;;11.30;99.90;;;;;;5049423;28;20033;-68
2022/03/11 05:05:41;;;;;;;27.00;17.27;;;11.30;99.90;;;;;;5054417;28;20025;-69
2022/03/11 05:08:07;;;;;;;30.27;17.48;;;11.30;99.90;;;;;;5049021;28;20029;-68
2022/03/11 05:10:33;;;;;;;21.40;15.70;;;11.30;99.90;;;;;;5045436;28;20061;-69
2022/03/11 05:12:59;;;;;;;22.80;16.23;;;11.30;99.90;;;;;;5052941;28;20052;-68
2022/03/11 05:15:24;;;;;;;27.88;16.70;;;11.30;99.90;;;;;;5050369;28;20040;-69
2022/03/11 05:17:51;;;;;;;22.20;16.40;;;11.30;99.90;;;;;;5050392;28;20033;-69
2022/03/11 05:20:17;;;;;;;24.00;16.27;;;11.30;99.90;;;;;;5050467;28;20028;-69
2022/03/11 05:22:43;;;;;;;23.45;16.13;;;11.30;99.90;;;;;;5042277;28;20041;-69
2022/03/11 05:25:10;;;;;;;23.52;16.05;;;11.20;99.90;;;;;;5051512;28;20041;-69
2022/03/11 05:27:37;;;;;;;24.13;16.30;;;11.30;99.90;;;;;;5050537;28;20033;-69
2022/03/11 05:30:05;;;;;;;23.67;16.42;;;11.20;99.90;;;;;;5050517;28;20033;-69
2022/03/11 05:32:31;;;;;;;22.33;16.48;;;11.30;99.90;;;;;;5048901;28;20044;-69
2022/03/11 05:34:57;;;;;;;21.40;16.13;;;11.30;99.90;;;;;;5039559;28;20033;-68
2022/03/11 05:37:22;;;;;;;23.48;15.57;;;11.30;99.90;;;;;;5038460;28;20413;-69
2022/03/11 05:39:48;;;;;;;25.13;16.00;;;11.20;99.90;;;;;;5069742;28;20029;-69
2022/03/11 05:42:14;;;;;;;26.65;15.73;;;11.20;99.90;;;;;;5046846;28;20041;-69
2022/03/11 05:44:40;;;;;;;22.58;14.82;;;11.20;99.90;;;;;;5043464;28;20051;-68
2022/03/11 05:47:06;;;;;;;23.10;14.93;;;11.20;99.90;;;;;;5041132;28;20143;-69
2022/03/11 05:49:32;;;;;;;22.65;15.40;;;11.30;99.90;;;;;;5037810;28;20040;-69
2022/03/11 05:51:57;;;;;;;23.50;15.30;;;11.20;99.90;;;;;;5041589;28;20032;-69
2022/03/11 05:54:23;;;;;;;21.75;15.23;;;11.20;99.90;;;;;;5051599;28;20040;-69
2022/03/11 05:56:54;;;;;;;20.88;15.40;;;11.30;99.90;;;;;;5050217;28;20037;-69
2022/03/11 05:59:21;;;;;;;22.30;15.32;;;11.30;99.90;;;;;;5050130;28;20509;-69
2022/03/11 06:01:47;;;;;;;20.92;14.40;;;11.30;99.90;;;;;;5054010;28;20025;-69
2022/03/11 06:04:12;;;;;;;22.13;15.25;;;11.30;99.90;;;;;;5046369;28;20028;-69
2022/03/11 06:06:38;;;;;;;22.33;14.73;;;11.30;99.90;;;;;;5045030;28;20114;-69
2022/03/11 06:09:04;;;;;;;24.50;15.13;;;11.30;99.90;;;;;;5048098;28;20284;-69
2022/03/11 06:11:30;;;;;;;23.13;14.15;;;11.30;99.90;;;;;;5043295;28;20029;-69
2022/03/11 06:13:55;;;;;;;22.90;14.65;;;11.30;99.90;;;;;;5046196;28;20516;-68
2022/03/11 06:16:21;;;;;;;22.20;14.70;;;11.30;99.90;;;;;;5045586;28;20037;-69
2022/03/11 06:18:47;;;;;;;22.77;14.70;;;11.30;99.90;;;;;;5045565;28;20388;-69
2022/03/11 06:21:13;;;;;;;23.55;14.45;;;11.30;99.90;;;;;;5046833;28;20045;-69
2022/03/11 06:23:38;;;;;;;26.80;14.00;;;11.30;99.90;;;;;;5051029;28;20037;-69
2022/03/11 06:26:04;;;;;;;21.75;14.20;;;11.30;99.90;;;;;;5047029;28;20029;-69
2022/03/11 06:28:30;;;;;;;21.60;13.30;;;11.30;99.90;;;;;;5045776;28;20319;-68
2022/03/11 06:30:57;;;;;;;20.33;13.32;;;11.40;99.90;;;;;;5043096;28;20497;-68
2022/03/11 06:33:23;;;;;;;20.23;13.27;;;11.40;99.90;;;;;;5045209;28;20033;-69
2022/03/11 06:35:50;;;;;;;20.48;13.27;;;11.40;99.90;;;;;;5042490;28;20103;-68
2022/03/11 06:38:16;;;;;;;21.15;13.30;;;11.40;99.90;;;;;;5041618;28;20024;-69
2022/03/11 06:40:42;;;;;;;19.35;12.45;;;11.40;99.90;;;;;;5038558;28;20497;-69
2022/03/11 06:43:08;;;;;;;19.90;12.77;;;11.40;99.90;;;;;;5040564;28;20033;-68
2022/03/11 06:45:33;;;;;;;20.17;13.52;;;11.40;99.90;;;;;;5042398;28;20048;-69
2022/03/11 06:47:59;;;;;;;18.98;12.75;;;11.50;99.90;;;;;;5042870;28;20021;-69
2022/03/11 06:50:25;;;;;;;22.63;12.80;;;11.50;99.90;;;;;;5048941;28;20123;-69
2022/03/11 06:52:51;;;;;;;19.52;12.20;;;11.50;99.90;;;;;;5050919;28;22881;-69
2022/03/11 06:55:17;;;;;;;18.05;11.85;;;11.50;99.90;;;;;;5037590;28;20013;-69
2022/03/11 06:57:44;;;;;;;18.95;12.15;;;11.50;99.90;;;;;;5059283;28;20509;-67
2022/03/11 07:00:12;;;;;;;20.92;13.15;;;11.50;99.90;;;;;;5041409;28;20574;-68
2022/03/11 07:02:39;;;;;;;25.20;12.77;;;11.50;99.90;;;;;;5044287;28;20031;-68
2022/03/11 07:05:05;;;;;;;18.08;12.27;;;11.50;99.90;;;;;;5039464;28;20033;-68
2022/03/11 07:07:33;;;;;;;21.83;12.13;;;11.60;99.90;;;;;;5037371;28;20026;-68
2022/03/11 07:10:07;;;;;;;17.90;12.88;;;11.60;99.90;;;;;;5052581;28;20445;-67
2022/03/11 07:12:32;;;;;;;;;;;11.60;99.90;;;;;;5052338;28;20052;-68
2022/03/11 07:15:00;;;;;;;20.23;12.00;;;11.60;99.90;;;;;;5052033;28;20370;-67
2022/03/11 07:17:27;;;;;;;21.55;12.60;;;11.60;99.90;;;;;;5050854;28;20040;-68
2022/03/11 07:19:53;;;;;;;19.70;11.98;;;11.70;99.90;;;;;;5051106;28;20039;-69
2022/03/11 07:22:18;;;;;;;18.77;11.88;;;11.70;99.90;;;;;;5052734;28;20112;-68
2022/03/11 07:24:45;;;;;;;19.88;11.98;;;11.70;99.90;;;;;;5052580;28;20025;-67
2022/03/11 07:27:12;;;;;;;19.48;11.90;;;11.70;99.90;;;;;;5052748;28;20036;-66
2022/03/11 07:29:37;;;;;;;18.80;12.43;;;11.70;99.90;;;;;;5051986;28;20028;-67
2022/03/11 07:32:04;;;;;;;17.08;11.65;;;11.70;99.90;;;;;;5051554;28;20044;-67
2022/03/11 07:34:30;;;;;;;19.73;11.57;;;11.80;99.90;;;;;;5052047;28;20428;-67
2022/03/11 07:36:56;;;;;;;21.60;11.38;;;11.80;99.90;;;;;;5052569;28;20028;-67
2022/03/11 07:39:22;;;;;;;22.83;12.05;;;11.80;99.90;;;;;;5050578;28;20086;-67
2022/03/11 07:41:50;;;;;;;22.00;11.25;;;11.90;99.90;;;;;;5054078;28;20017;-67
2022/03/11 07:44:17;;;;;;;22.50;12.35;;;11.80;99.90;;;;;;5048468;28;20083;-67
2022/03/11 07:46:43;;;;;;;17.20;11.52;;;11.80;99.90;;;;;;5038658;28;20112;-66
2022/03/11 07:49:10;;;;;;;18.13;11.50;;;11.80;99.90;;;;;;5048247;28;20040;-67
2022/03/11 07:51:36;;;;;;;22.17;11.10;;;11.80;99.90;;;;;;5045283;28;20044;-68
2022/03/11 07:54:02;;;;;;;21.63;12.50;;;11.90;99.90;;;;;;5040558;28;20034;-67
2022/03/11 07:56:28;;;;;;;21.23;11.77;;;11.90;99.90;;;;;;5039732;28;20066;-67
2022/03/11 07:58:56;;;;;;;22.92;12.27;;;11.90;99.90;;;;;;5042280;28;20032;-67
2022/03/11 08:01:22;;;;;;;18.45;10.70;;;11.90;99.90;;;;;;5041301;28;20410;-67
2022/03/11 08:03:48;;;;;;;18.23;11.05;;;11.90;99.90;;;;;;5046550;28;20459;-66
2022/03/11 08:06:14;;;;;;;17.58;11.20;;;11.90;99.90;;;;;;5044600;28;20025;-67
2022/03/11 08:08:39;;;;;;;18.75;11.57;;;11.90;99.90;;;;;;5041779;28;20049;-67
2022/03/11 08:11:06;;;;;;;19.83;12.13;;;11.90;99.90;;;;;;5045014;28;20163;-69
2022/03/11 08:13:33;;;;;;;18.52;11.30;;;11.90;99.90;;;;;;5041565;28;20056;-71
2022/03/11 08:16:00;;;;;;;17.77;10.30;;;11.90;99.90;;;;;;5043876;28;20036;-70
2022/03/11 08:18:26;;;;;;;23.17;11.55;;;11.90;99.90;;;;;;5043108;28;20085;-68
2022/03/11 08:20:52;;;;;;;23.73;11.73;;;11.90;99.90;;;;;;5046330;28;20021;-68
2022/03/11 08:23:19;;;;;;;17.63;10.73;;;12.00;99.90;;;;;;5043015;28;20034;-68
2022/03/11 08:25:45;;;;;;;16.50;10.75;;;12.00;99.90;;;;;;5037335;28;20120;-69
2022/03/11 08:28:13;;;;;;;21.67;11.40;;;12.10;99.90;;;;;;5047392;28;20035;-69
2022/03/11 08:30:40;;;;;;;18.52;10.15;;;12.10;99.90;;;;;;5045395;28;20056;-68
2022/03/11 08:33:06;;;;;;;19.48;10.40;;;12.10;99.90;;;;;;5046882;28;20033;-68
2022/03/11 08:35:32;;;;;;;15.73;10.57;;;12.20;99.90;;;;;;5043753;28;20036;-67
2022/03/11 08:37:59;;;;;;;17.02;11.13;;;12.20;99.90;;;;;;5044171;28;20517;-68
2022/03/11 08:40:26;;;;;;;22.55;11.38;;;12.20;99.90;;;;;;5046151;28;20044;-67
2022/03/11 08:42:53;;;;;;;16.88;10.05;;;12.20;99.90;;;;;;5045316;28;20036;-67
2022/03/11 08:45:22;;;;;;;18.75;11.75;;;12.20;99.90;;;;;;5044459;28;20037;-67
2022/03/11 08:47:49;;;;;;;14.40;9.65;;;12.30;99.90;;;;;;5045537;28;20025;-67
2022/03/11 08:50:16;;;;;;;15.32;10.43;;;12.20;99.90;;;;;;5045278;28;20070;-66
2022/03/11 08:52:43;;;;;;;17.25;10.45;;;12.30;99.90;;;;;;5041571;28;20029;-67
2022/03/11 08:55:10;;;;;;;19.13;9.70;;;12.30;99.90;;;;;;5047663;28;20524;-67
2022/03/11 08:57:35;;;;;;;22.15;10.77;;;12.30;99.90;;;;;;5048439;28;20167;-67
2022/03/11 09:00:07;;;;;;;18.30;10.00;;;12.20;99.90;;;;;;5044789;28;20091;-67
2022/03/11 09:02:37;;;;;;;17.73;10.65;;;12.30;99.90;;;;;;5041140;28;20021;-69
2022/03/11 09:05:07;;;;;;;19.15;10.93;;;12.30;99.90;;;;;;5047395;28;20039;-70
2022/03/11 09:07:33;;;;;;;23.80;10.52;;;12.40;99.90;;;;;;5045528;28;20084;-70
2022/03/11 09:10:03;;;;;;;17.10;10.23;;;12.40;99.90;;;;;;5046756;28;20061;-69
2022/03/11 09:12:29;;;;;;;17.30;9.75;;;12.50;99.90;;;;;;5052538;28;20028;-70
2022/03/11 09:14:55;;;;;;;17.40;10.93;;;12.50;99.90;;;;;;5045384;28;20048;-69
2022/03/11 09:17:21;;;;;;;16.15;9.88;;;12.50;99.90;;;;;;5046134;28;20033;-70
2022/03/11 09:19:47;;;;;;;16.17;9.80;;;12.50;99.90;;;;;;5051191;28;20503;-67
2022/03/11 09:22:13;;;;;;;20.55;10.07;;;12.50;99.90;;;;;;5048034;28;20596;-70
2022/03/11 09:24:42;;;;;;;15.70;9.85;;;12.50;99.90;;;;;;5049360;28;20534;-70
2022/03/11 09:27:18;;;;;;;14.40;9.57;;;12.40;99.90;;;;;;5045847;28;20029;-69
2022/03/11 09:29:43;;;;;;;15.90;9.40;;;12.50;99.90;;;;;;5046150;28;20056;-69
2022/03/11 09:32:10;;;;;;;16.33;9.60;;;12.50;99.90;;;;;;5049776;28;20138;-70
2022/03/11 09:34:37;;;;;;;17.42;10.75;;;12.50;99.90;;;;;;5057968;28;20025;-70
2022/03/11 09:37:04;;;;;;;16.40;10.20;;;12.50;99.90;;;;;;5048506;28;20075;-72
2022/03/11 09:39:29;;;;;;;17.35;9.75;;;12.60;99.90;;;;;;5051248;28;20051;-70
2022/03/11 09:41:55;;;;;;;17.05;10.48;;;12.60;99.90;;;;;;5047565;28;20116;-70
2022/03/11 09:44:21;;;;;;;14.75;9.40;;;12.50;99.90;;;;;;5048180;28;20120;-70
2022/03/11 09:46:48;;;;;;;17.63;9.18;;;12.60;99.90;;;;;;5052728;28;20489;-69
2022/03/11 09:49:15;;;;;;;20.02;10.88;;;12.60;99.90;;;;;;5043302;28;20091;-70
2022/03/11 09:51:42;;;;;;;15.80;9.85;;;12.60;99.90;;;;;;5049955;28;20028;-71
2022/03/11 09:54:09;;;;;;;15.52;10.75;;;12.60;99.90;;;;;;5049195;28;20029;-70
2022/03/11 09:56:38;;;;;;;17.15;8.52;;;12.60;99.90;;;;;;5048361;28;20017;-71
2022/03/11 09:59:04;;;;;;;18.65;10.20;;;12.60;99.90;;;;;;5051940;28;20036;-70
2022/03/11 10:01:30;;;;;;;16.60;9.63;;;12.60;99.90;;;;;;5051182;28;20037;-68
2022/03/11 10:03:56;;;;;;;14.32;9.77;;;12.60;99.90;;;;;;5048753;28;20029;-69
2022/03/11 10:06:38;;;;;;;19.55;9.80;;;12.60;99.90;;;;;;5049009;28;20356;-70
2022/03/11 10:09:04;;;;;;;16.20;9.60;;;12.60;99.90;;;;;;5048628;28;20106;-69
2022/03/11 10:11:30;;;;;;;17.75;9.35;;;12.60;99.90;;;;;;5041552;28;20064;-69
2022/03/11 10:14:09;;;;;;;16.70;9.80;;;12.60;99.90;;;;;;5052768;28;20489;-68
2022/03/11 10:16:36;;;;;;;16.83;9.20;;;12.60;99.90;;;;;;5042368;28;20116;-68
2022/03/11 10:19:10;;;;;;;16.13;9.43;;;12.70;99.90;;;;;;5051159;28;20504;-69
2022/03/11 10:21:37;;;;;;;17.98;10.10;;;12.70;99.90;;;;;;5050607;28;20037;-68
2022/03/11 10:24:06;;;;;;;13.65;8.68;;;12.70;99.90;;;;;;5046167;28;20485;-69
2022/03/11 10:26:36;;;;;;;16.98;8.95;;;12.70;99.90;;;;;;5047547;28;20045;-68
2022/03/11 10:29:04;;;;;;;15.52;9.77;;;12.70;99.90;;;;;;5050370;28;20045;-70
2022/03/11 10:31:36;;;;;;;15.38;8.38;;;12.70;99.90;;;;;;5048768;28;20052;-69
2022/03/11 10:34:24;;;;;;;13.23;8.57;;;12.70;99.90;;;;;;5051048;28;20025;-68
2022/03/11 10:37:12;;;;;;;14.43;8.95;;;12.80;99.90;;;;;;5050025;28;20091;-68
2022/03/11 10:39:48;;;;;;;19.73;9.60;;;12.80;99.90;;;;;;5044732;28;20497;-68
2022/03/11 10:42:23;;;;;;;19.50;9.18;;;12.90;99.90;;;;;;5046787;28;20044;-68
2022/03/11 10:44:56;;;;;;;12.85;8.48;;;13.00;99.90;;;;;;5044992;28;20078;-69
2022/03/11 10:47:23;;;;;;;14.32;8.98;;;12.90;99.90;;;;;;5041980;28;20045;-71
2022/03/11 10:49:50;;;;;;;17.27;9.68;;;12.90;99.90;;;;;;5044837;28;20033;-69
2022/03/11 10:52:30;;;;;;;13.43;8.77;;;12.90;99.90;;;;;;5046748;28;20032;-68
2022/03/11 10:54:56;;;;;;;16.85;8.82;;;12.90;99.90;;;;;;5042176;28;20390;-69
2022/03/11 10:57:36;;;;;;;13.95;7.78;;;12.90;99.90;;;;;;5050233;28;20028;-70
2022/03/11 11:00:24;;;;;;;16.35;8.43;;;13.00;99.90;;;;;;5049942;28;20025;-70
2022/03/11 11:02:53;;;;;;;14.52;8.35;;;13.00;99.90;;;;;;5042976;28;20036;-69
2022/03/11 11:05:19;;;;;;;14.90;8.05;;;13.10;99.90;;;;;;5050299;28;20029;-70
2022/03/11 11:07:45;;;;;;;15.80;8.68;;;13.00;99.90;;;;;;5052412;28;20037;-67
2022/03/11 11:10:14;;;;;;;13.95;8.20;;;13.10;99.90;;;;;;5044910;28;20087;-67
2022/03/11 11:12:40;;;;;;;13.80;7.82;;;13.20;99.90;;;;;;5049999;28;20044;-67
2022/03/11 11:15:07;;;;;;;15.57;7.68;;;13.20;99.90;;;;;;5049854;28;20048;-68
2022/03/11 11:17:37;;;;;;;13.05;7.63;;;13.00;99.90;;;;;;5050334;28;20421;-66
2022/03/11 11:20:04;;;;;;;13.60;7.57;;;13.10;99.90;;;;;;5052014;28;20033;-67
2022/03/11 11:22:31;;;;;;;14.77;8.18;;;13.10;99.90;;;;;;5050748;28;20115;-65
2022/03/11 11:25:01;;;;;;;13.15;8.25;;;13.10;99.90;;;;;;5050758;28;20481;-66
2022/03/11 11:27:30;;;;;;;11.65;7.25;;;13.10;99.90;;;;;;5050646;28;20069;-67
2022/03/11 11:29:56;;;;;;;15.00;8.00;;;13.00;99.90;;;;;;5045209;28;20501;-67
2022/03/11 11:32:23;;;;;;;14.25;8.68;;;13.00;99.90;;;;;;5046285;28;20022;-66
2022/03/11 11:34:48;;;;;;;17.50;9.32;;;13.10;99.90;;;;;;5055692;28;20020;-67
2022/03/11 11:37:47;;;;;;;11.98;8.48;;;13.10;99.90;;;;;;5050859;28;20040;-66
2022/03/11 11:40:23;;;;;;;18.08;8.20;;;13.10;99.90;;;;;;5014292;28;20458;-67
2022/03/11 11:43:26;;;;;;;17.48;8.68;;;13.20;99.90;;;;;;5014571;28;20096;-66
2022/03/11 11:46:01;;;;;;;17.45;8.52;;;13.20;99.90;;;;;;5021604;28;20037;-68
2022/03/11 11:48:33;;;;;;;16.27;8.98;;;13.10;99.90;;;;;;5017922;28;20525;-67
2022/03/11 11:51:00;;;;;;;14.52;8.80;;;13.20;99.90;;;;;;5017972;28;20042;-66
2022/03/11 11:53:41;;;;;;;16.48;9.70;;;13.20;99.90;;;;;;5018416;28;20022;-65
2022/03/11 11:56:25;;;;;;;15.77;9.82;;;13.30;99.90;;;;;;5012989;28;20041;-65
2022/03/11 11:58:52;;;;;;;15.15;9.20;;;13.30;99.90;;;;;;5014019;28;20037;-67
2022/03/11 12:01:39;;;;;;;19.10;9.13;;;13.20;99.90;;;;;;5022451;28;20125;-67
2022/03/11 12:04:25;;;;;;;17.63;10.43;;;13.20;99.90;;;;;;5021025;28;20072;-67
2022/03/11 12:06:57;;;;;;;17.75;10.20;;;13.20;99.90;;;;;;5020344;28;20064;-67
2022/03/11 12:09:39;;;;;;;15.27;8.57;;;13.30;99.90;;;;;;5019970;28;20046;-67
2022/03/11 12:12:05;;;;;;;14.38;8.93;;;13.30;99.90;;;;;;5023558;28;20041;-66
2022/03/11 12:14:32;;;;;;;16.00;9.93;;;13.30;99.90;;;;;;5015880;28;20090;-67
2022/03/11 12:17:06;;;;;;;13.68;9.27;;;13.30;99.90;;;;;;5041140;28;20113;-67
2022/03/11 12:19:37;;;;;;;18.27;10.50;;;13.40;99.90;;;;;;5042365;28;20037;-67
2022/03/11 12:22:31;;;;;;;15.73;9.95;;;13.30;99.90;;;;;;5044746;28;20060;-67
2022/03/11 12:24:58;;;;;;;17.10;10.18;;;13.30;99.90;;;;;;5052166;28;20035;-67
2022/03/11 12:28:00;;;;;;;15.63;9.75;;;13.20;99.90;;;;;;5049823;28;20045;-65
2022/03/11 12:30:31;;;;;;;18.77;9.25;;;13.20;99.90;;;;;;5046068;28;20037;-65
2022/03/11 12:33:00;;;;;;;19.00;9.60;;;13.20;99.90;;;;;;5044590;28;20043;-65